sensor_id;sensor_type;location;lat;lon;timestamp;P1;durP1;ratioP1;P2;durP2;ratioP2
85662;SDS011;76094;55.506;37.950;2024-01-30T00:00:09;12.63;;;7.75;;
85662;SDS011;76094;55.506;37.950;2024-01-30T00:02:38;15.90;;;7.57;;
85662;SDS011;76094;55.506;37.950;2024-01-30T00:05:04;16.80;;;7.72;;
85662;SDS011;76094;55.506;37.950;2024-01-30T00:07:30;14.88;;;8.07;;
85662;SDS011;76094;55.506;37.950;2024-01-30T00:09:57;16.70;;;7.82;;
85662;SDS011;76094;55.506;37.950;2024-01-30T00:12:23;14.63;;;8.13;;
85662;SDS011;76094;55.506;37.950;2024-01-30T00:14:49;13.65;;;7.88;;
85662;SDS011;76094;55.506;37.950;2024-01-30T00:17:15;13.63;;;7.20;;
85662;SDS011;76094;55.506;37.950;2024-01-30T00:19:42;12.50;;;6.80;;
85662;SDS011;76094;55.506;37.950;2024-01-30T00:22:08;14.90;;;7.80;;
85662;SDS011;76094;55.506;37.950;2024-01-30T00:24:34;15.75;;;7.43;;
85662;SDS011;76094;55.506;37.950;2024-01-30T00:27:01;14.02;;;8.05;;
85662;SDS011;76094;55.506;37.950;2024-01-30T00:29:27;14.20;;;7.47;;
85662;SDS011;76094;55.506;37.950;2024-01-30T00:31:56;16.05;;;7.95;;
85662;SDS011;76094;55.506;37.950;2024-01-30T00:34:23;13.70;;;7.00;;
85662;SDS011;76094;55.506;37.950;2024-01-30T00:36:49;14.20;;;8.00;;
85662;SDS011;76094;55.506;37.950;2024-01-30T00:39:15;16.20;;;7.93;;
85662;SDS011;76094;55.506;37.950;2024-01-30T00:41:42;15.15;;;7.88;;
85662;SDS011;76094;55.506;37.950;2024-01-30T00:44:08;13.27;;;7.95;;
85662;SDS011;76094;55.506;37.950;2024-01-30T00:46:34;11.65;;;6.82;;
85662;SDS011;76094;55.506;37.950;2024-01-30T00:49:01;16.10;;;7.55;;
85662;SDS011;76094;55.506;37.950;2024-01-30T00:51:27;11.73;;;7.68;;
85662;SDS011;76094;55.506;37.950;2024-01-30T00:53:55;13.57;;;8.00;;
85662;SDS011;76094;55.506;37.950;2024-01-30T00:56:21;16.58;;;8.23;;
85662;SDS011;76094;55.506;37.950;2024-01-30T00:58:48;15.60;;;7.57;;
85662;SDS011;76094;55.506;37.950;2024-01-30T01:01:15;12.63;;;7.47;;
85662;SDS011;76094;55.506;37.950;2024-01-30T01:03:41;13.88;;;7.60;;
85662;SDS011;76094;55.506;37.950;2024-01-30T01:06:09;15.23;;;7.90;;
85662;SDS011;76094;55.506;37.950;2024-01-30T01:08:36;14.05;;;8.07;;
85662;SDS011;76094;55.506;37.950;2024-01-30T01:11:02;14.48;;;7.22;;
85662;SDS011;76094;55.506;37.950;2024-01-30T01:13:29;14.68;;;7.88;;
85662;SDS011;76094;55.506;37.950;2024-01-30T01:15:55;14.27;;;8.25;;
85662;SDS011;76094;55.506;37.950;2024-01-30T01:18:22;12.02;;;7.38;;
85662;SDS011;76094;55.506;37.950;2024-01-30T01:20:48;16.63;;;8.75;;
85662;SDS011;76094;55.506;37.950;2024-01-30T01:23:14;12.65;;;7.80;;
85662;SDS011;76094;55.506;37.950;2024-01-30T01:25:41;13.57;;;8.00;;
85662;SDS011;76094;55.506;37.950;2024-01-30T01:28:07;15.38;;;7.93;;
85662;SDS011;76094;55.506;37.950;2024-01-30T01:30:33;13.68;;;8.15;;
85662;SDS011;76094;55.506;37.950;2024-01-30T01:33:00;14.52;;;8.10;;
85662;SDS011;76094;55.506;37.950;2024-01-30T01:35:28;15.30;;;8.45;;
85662;SDS011;76094;55.506;37.950;2024-01-30T01:37:54;15.95;;;8.13;;
85662;SDS011;76094;55.506;37.950;2024-01-30T01:40:24;14.20;;;8.07;;
85662;SDS011;76094;55.506;37.950;2024-01-30T01:42:51;19.80;;;9.35;;
85662;SDS011;76094;55.506;37.950;2024-01-30T01:45:21;15.27;;;8.80;;
85662;SDS011;76094;55.506;37.950;2024-01-30T01:47:49;12.85;;;7.25;;
85662;SDS011;76094;55.506;37.950;2024-01-30T01:50:17;14.70;;;8.30;;
85662;SDS011;76094;55.506;37.950;2024-01-30T01:52:44;18.20;;;8.95;;
85662;SDS011;76094;55.506;37.950;2024-01-30T01:55:13;17.10;;;8.52;;
85662;SDS011;76094;55.506;37.950;2024-01-30T01:57:41;14.00;;;7.95;;
85662;SDS011;76094;55.506;37.950;2024-01-30T02:00:08;14.98;;;8.57;;
85662;SDS011;76094;55.506;37.950;2024-01-30T02:02:36;15.82;;;8.45;;
85662;SDS011;76094;55.506;37.950;2024-01-30T02:05:02;15.98;;;7.75;;
85662;SDS011;76094;55.506;37.950;2024-01-30T02:07:30;18.58;;;7.63;;
85662;SDS011;76094;55.506;37.950;2024-01-30T02:09:56;14.07;;;7.75;;
85662;SDS011;76094;55.506;37.950;2024-01-30T02:12:22;16.20;;;7.53;;
85662;SDS011;76094;55.506;37.950;2024-01-30T02:14:48;16.30;;;8.32;;
85662;SDS011;76094;55.506;37.950;2024-01-30T02:17:15;17.20;;;8.30;;
85662;SDS011;76094;55.506;37.950;2024-01-30T02:19:42;19.60;;;8.48;;
85662;SDS011;76094;55.506;37.950;2024-01-30T02:22:08;13.93;;;8.38;;
85662;SDS011;76094;55.506;37.950;2024-01-30T02:24:35;17.40;;;7.88;;
85662;SDS011;76094;55.506;37.950;2024-01-30T02:27:01;14.13;;;7.95;;
85662;SDS011;76094;55.506;37.950;2024-01-30T02:29:28;14.80;;;7.82;;
85662;SDS011;76094;55.506;37.950;2024-01-30T02:31:54;14.55;;;7.47;;
85662;SDS011;76094;55.506;37.950;2024-01-30T02:34:20;15.00;;;8.18;;
85662;SDS011;76094;55.506;37.950;2024-01-30T02:36:47;17.33;;;8.50;;
85662;SDS011;76094;55.506;37.950;2024-01-30T02:39:13;14.43;;;7.57;;
85662;SDS011;76094;55.506;37.950;2024-01-30T02:41:39;13.98;;;7.38;;
85662;SDS011;76094;55.506;37.950;2024-01-30T02:44:05;15.10;;;7.60;;
85662;SDS011;76094;55.506;37.950;2024-01-30T02:46:33;15.68;;;8.18;;
85662;SDS011;76094;55.506;37.950;2024-01-30T02:48:59;13.18;;;8.25;;
85662;SDS011;76094;55.506;37.950;2024-01-30T02:51:25;13.30;;;7.68;;
85662;SDS011;76094;55.506;37.950;2024-01-30T02:53:52;16.83;;;8.02;;
85662;SDS011;76094;55.506;37.950;2024-01-30T02:56:18;14.02;;;7.18;;
85662;SDS011;76094;55.506;37.950;2024-01-30T02:58:44;12.60;;;7.45;;
85662;SDS011;76094;55.506;37.950;2024-01-30T03:01:10;13.50;;;7.10;;
85662;SDS011;76094;55.506;37.950;2024-01-30T03:03:37;13.73;;;7.75;;
85662;SDS011;76094;55.506;37.950;2024-01-30T03:06:03;14.52;;;8.07;;
85662;SDS011;76094;55.506;37.950;2024-01-30T03:08:29;12.95;;;7.28;;
85662;SDS011;76094;55.506;37.950;2024-01-30T03:10:56;13.13;;;7.68;;
85662;SDS011;76094;55.506;37.950;2024-01-30T03:13:22;13.90;;;7.45;;
85662;SDS011;76094;55.506;37.950;2024-01-30T03:15:50;13.40;;;7.53;;
85662;SDS011;76094;55.506;37.950;2024-01-30T03:18:17;15.27;;;7.03;;
85662;SDS011;76094;55.506;37.950;2024-01-30T03:20:43;13.82;;;7.15;;
85662;SDS011;76094;55.506;37.950;2024-01-30T03:23:10;11.77;;;7.45;;
85662;SDS011;76094;55.506;37.950;2024-01-30T03:25:36;14.55;;;7.50;;
85662;SDS011;76094;55.506;37.950;2024-01-30T03:28:02;13.00;;;7.07;;
85662;SDS011;76094;55.506;37.950;2024-01-30T03:30:29;13.38;;;7.60;;
85662;SDS011;76094;55.506;37.950;2024-01-30T03:32:55;11.35;;;7.13;;
85662;SDS011;76094;55.506;37.950;2024-01-30T03:35:22;13.23;;;7.25;;
85662;SDS011;76094;55.506;37.950;2024-01-30T03:37:48;13.70;;;7.45;;
85662;SDS011;76094;55.506;37.950;2024-01-30T03:40:14;12.88;;;7.43;;
85662;SDS011;76094;55.506;37.950;2024-01-30T03:42:41;10.80;;;6.70;;
85662;SDS011;76094;55.506;37.950;2024-01-30T03:45:07;12.38;;;7.70;;
85662;SDS011;76094;55.506;37.950;2024-01-30T03:47:34;10.60;;;6.97;;
85662;SDS011;76094;55.506;37.950;2024-01-30T03:50:00;12.77;;;7.97;;
85662;SDS011;76094;55.506;37.950;2024-01-30T03:52:26;12.57;;;6.53;;
85662;SDS011;76094;55.506;37.950;2024-01-30T03:54:52;12.75;;;7.07;;
85662;SDS011;76094;55.506;37.950;2024-01-30T03:57:19;11.88;;;6.95;;
85662;SDS011;76094;55.506;37.950;2024-01-30T03:59:45;14.18;;;7.25;;
85662;SDS011;76094;55.506;37.950;2024-01-30T04:02:11;10.88;;;6.50;;
85662;SDS011;76094;55.506;37.950;2024-01-30T04:04:37;14.18;;;7.60;;
85662;SDS011;76094;55.506;37.950;2024-01-30T04:07:04;14.43;;;7.95;;
85662;SDS011;76094;55.506;37.950;2024-01-30T04:09:30;13.85;;;7.63;;
85662;SDS011;76094;55.506;37.950;2024-01-30T04:11:57;12.60;;;7.60;;
85662;SDS011;76094;55.506;37.950;2024-01-30T04:14:23;12.80;;;7.43;;
85662;SDS011;76094;55.506;37.950;2024-01-30T04:16:49;12.95;;;7.00;;
85662;SDS011;76094;55.506;37.950;2024-01-30T04:19:16;12.60;;;6.97;;
85662;SDS011;76094;55.506;37.950;2024-01-30T04:21:42;11.82;;;7.18;;
85662;SDS011;76094;55.506;37.950;2024-01-30T04:24:08;13.45;;;7.65;;
85662;SDS011;76094;55.506;37.950;2024-01-30T04:26:35;15.10;;;7.55;;
85662;SDS011;76094;55.506;37.950;2024-01-30T04:29:02;12.75;;;7.65;;
85662;SDS011;76094;55.506;37.950;2024-01-30T04:31:28;13.55;;;8.13;;
85662;SDS011;76094;55.506;37.950;2024-01-30T04:33:54;14.48;;;7.40;;
85662;SDS011;76094;55.506;37.950;2024-01-30T04:36:21;12.32;;;7.57;;
85662;SDS011;76094;55.506;37.950;2024-01-30T04:38:47;11.95;;;7.25;;
85662;SDS011;76094;55.506;37.950;2024-01-30T04:41:14;12.60;;;7.35;;
85662;SDS011;76094;55.506;37.950;2024-01-30T04:43:40;14.80;;;8.13;;
85662;SDS011;76094;55.506;37.950;2024-01-30T04:46:06;12.10;;;7.35;;
85662;SDS011;76094;55.506;37.950;2024-01-30T04:48:33;12.27;;;7.38;;
85662;SDS011;76094;55.506;37.950;2024-01-30T04:50:59;14.15;;;7.93;;
85662;SDS011;76094;55.506;37.950;2024-01-30T04:53:29;10.98;;;7.43;;
85662;SDS011;76094;55.506;37.950;2024-01-30T04:55:56;14.20;;;7.88;;
85662;SDS011;76094;55.506;37.950;2024-01-30T04:58:23;12.80;;;7.38;;
85662;SDS011;76094;55.506;37.950;2024-01-30T05:00:49;11.82;;;7.35;;
85662;SDS011;76094;55.506;37.950;2024-01-30T05:03:18;13.30;;;7.80;;
85662;SDS011;76094;55.506;37.950;2024-01-30T05:05:45;11.90;;;7.57;;
85662;SDS011;76094;55.506;37.950;2024-01-30T05:08:11;13.40;;;7.72;;
85662;SDS011;76094;55.506;37.950;2024-01-30T05:10:37;11.70;;;7.30;;
85662;SDS011;76094;55.506;37.950;2024-01-30T05:13:04;13.05;;;7.32;;
85662;SDS011;76094;55.506;37.950;2024-01-30T05:15:31;14.60;;;8.10;;
85662;SDS011;76094;55.506;37.950;2024-01-30T05:17:57;11.98;;;7.28;;
85662;SDS011;76094;55.506;37.950;2024-01-30T05:20:23;11.85;;;7.60;;
85662;SDS011;76094;55.506;37.950;2024-01-30T05:22:50;10.95;;;7.40;;
85662;SDS011;76094;55.506;37.950;2024-01-30T05:25:16;12.10;;;7.28;;
85662;SDS011;76094;55.506;37.950;2024-01-30T05:27:42;13.60;;;7.80;;
85662;SDS011;76094;55.506;37.950;2024-01-30T05:30:09;13.27;;;7.55;;
85662;SDS011;76094;55.506;37.950;2024-01-30T05:32:35;14.68;;;7.22;;
85662;SDS011;76094;55.506;37.950;2024-01-30T05:35:02;13.13;;;7.50;;
85662;SDS011;76094;55.506;37.950;2024-01-30T05:37:29;12.18;;;6.95;;
85662;SDS011;76094;55.506;37.950;2024-01-30T05:39:55;11.18;;;7.22;;
85662;SDS011;76094;55.506;37.950;2024-01-30T05:42:22;16.58;;;8.13;;
85662;SDS011;76094;55.506;37.950;2024-01-30T05:44:48;12.43;;;7.45;;
85662;SDS011;76094;55.506;37.950;2024-01-30T05:47:14;12.02;;;7.60;;
85662;SDS011;76094;55.506;37.950;2024-01-30T05:49:41;15.63;;;8.13;;
85662;SDS011;76094;55.506;37.950;2024-01-30T05:52:07;11.85;;;7.78;;
85662;SDS011;76094;55.506;37.950;2024-01-30T05:54:34;14.02;;;8.10;;
85662;SDS011;76094;55.506;37.950;2024-01-30T05:57:00;12.57;;;7.88;;
85662;SDS011;76094;55.506;37.950;2024-01-30T05:59:26;13.27;;;7.70;;
85662;SDS011;76094;55.506;37.950;2024-01-30T06:01:52;13.65;;;7.97;;
85662;SDS011;76094;55.506;37.950;2024-01-30T06:04:21;12.20;;;7.50;;
85662;SDS011;76094;55.506;37.950;2024-01-30T06:06:47;13.85;;;7.70;;
85662;SDS011;76094;55.506;37.950;2024-01-30T06:09:13;12.38;;;7.72;;
85662;SDS011;76094;55.506;37.950;2024-01-30T06:11:40;11.65;;;7.20;;
85662;SDS011;76094;55.506;37.950;2024-01-30T06:14:06;13.55;;;7.40;;
85662;SDS011;76094;55.506;37.950;2024-01-30T06:16:32;20.98;;;7.90;;
85662;SDS011;76094;55.506;37.950;2024-01-30T06:18:58;13.13;;;7.18;;
85662;SDS011;76094;55.506;37.950;2024-01-30T06:21:26;11.48;;;7.32;;
85662;SDS011;76094;55.506;37.950;2024-01-30T06:23:52;9.68;;;7.20;;
85662;SDS011;76094;55.506;37.950;2024-01-30T06:26:18;13.80;;;7.00;;
85662;SDS011;76094;55.506;37.950;2024-01-30T06:28:44;11.43;;;7.07;;
85662;SDS011;76094;55.506;37.950;2024-01-30T06:31:11;13.75;;;7.95;;
85662;SDS011;76094;55.506;37.950;2024-01-30T06:33:37;12.65;;;7.32;;
85662;SDS011;76094;55.506;37.950;2024-01-30T06:36:03;12.73;;;7.22;;
85662;SDS011;76094;55.506;37.950;2024-01-30T06:38:29;18.20;;;7.95;;
85662;SDS011;76094;55.506;37.950;2024-01-30T06:40:56;12.57;;;7.22;;
85662;SDS011;76094;55.506;37.950;2024-01-30T06:43:22;12.82;;;7.50;;
85662;SDS011;76094;55.506;37.950;2024-01-30T06:45:48;18.23;;;9.00;;
85662;SDS011;76094;55.506;37.950;2024-01-30T06:48:15;16.25;;;7.75;;
85662;SDS011;76094;55.506;37.950;2024-01-30T06:50:41;13.60;;;7.70;;
85662;SDS011;76094;55.506;37.950;2024-01-30T06:53:07;14.88;;;7.70;;
85662;SDS011;76094;55.506;37.950;2024-01-30T06:55:33;17.42;;;8.23;;
85662;SDS011;76094;55.506;37.950;2024-01-30T06:57:59;11.77;;;8.35;;
85662;SDS011;76094;55.506;37.950;2024-01-30T07:00:26;14.63;;;8.10;;
85662;SDS011;76094;55.506;37.950;2024-01-30T07:02:52;12.75;;;8.35;;
85662;SDS011;76094;55.506;37.950;2024-01-30T07:05:19;14.40;;;7.82;;
85662;SDS011;76094;55.506;37.950;2024-01-30T07:07:45;13.40;;;8.20;;
85662;SDS011;76094;55.506;37.950;2024-01-30T07:10:11;15.90;;;7.93;;
85662;SDS011;76094;55.506;37.950;2024-01-30T07:12:37;13.23;;;8.07;;
85662;SDS011;76094;55.506;37.950;2024-01-30T07:15:04;13.35;;;7.97;;
85662;SDS011;76094;55.506;37.950;2024-01-30T07:17:34;15.00;;;8.60;;
85662;SDS011;76094;55.506;37.950;2024-01-30T07:20:01;12.52;;;7.93;;
85662;SDS011;76094;55.506;37.950;2024-01-30T07:22:29;15.27;;;8.20;;
85662;SDS011;76094;55.506;37.950;2024-01-30T07:24:56;13.23;;;7.50;;
85662;SDS011;76094;55.506;37.950;2024-01-30T07:27:22;16.00;;;8.25;;
85662;SDS011;76094;55.506;37.950;2024-01-30T07:29:49;16.30;;;8.18;;
85662;SDS011;76094;55.506;37.950;2024-01-30T07:32:15;16.63;;;8.18;;
85662;SDS011;76094;55.506;37.950;2024-01-30T07:34:41;13.60;;;7.68;;
85662;SDS011;76094;55.506;37.950;2024-01-30T07:37:08;15.57;;;8.25;;
85662;SDS011;76094;55.506;37.950;2024-01-30T07:39:34;12.82;;;8.32;;
85662;SDS011;76094;55.506;37.950;2024-01-30T07:42:00;15.52;;;8.07;;
85662;SDS011;76094;55.506;37.950;2024-01-30T07:44:26;15.20;;;8.95;;
85662;SDS011;76094;55.506;37.950;2024-01-30T07:46:53;15.43;;;7.95;;
85662;SDS011;76094;55.506;37.950;2024-01-30T07:49:19;17.02;;;7.75;;
85662;SDS011;76094;55.506;37.950;2024-01-30T07:51:45;15.98;;;7.63;;
85662;SDS011;76094;55.506;37.950;2024-01-30T07:54:12;12.98;;;8.05;;
85662;SDS011;76094;55.506;37.950;2024-01-30T07:56:41;17.48;;;8.40;;
85662;SDS011;76094;55.506;37.950;2024-01-30T07:59:11;13.85;;;7.43;;
85662;SDS011;76094;55.506;37.950;2024-01-30T08:01:37;16.88;;;7.97;;
85662;SDS011;76094;55.506;37.950;2024-01-30T08:04:04;16.05;;;8.23;;
85662;SDS011;76094;55.506;37.950;2024-01-30T08:06:30;16.92;;;8.15;;
85662;SDS011;76094;55.506;37.950;2024-01-30T08:08:56;14.13;;;8.40;;
85662;SDS011;76094;55.506;37.950;2024-01-30T08:11:24;15.20;;;8.20;;
85662;SDS011;76094;55.506;37.950;2024-01-30T08:13:52;16.17;;;8.68;;
85662;SDS011;76094;55.506;37.950;2024-01-30T08:16:19;17.02;;;8.52;;
85662;SDS011;76094;55.506;37.950;2024-01-30T08:18:45;14.40;;;7.82;;
85662;SDS011;76094;55.506;37.950;2024-01-30T08:21:11;16.63;;;7.78;;
85662;SDS011;76094;55.506;37.950;2024-01-30T08:23:40;14.43;;;8.40;;
85662;SDS011;76094;55.506;37.950;2024-01-30T08:26:08;16.52;;;8.80;;
85662;SDS011;76094;55.506;37.950;2024-01-30T08:28:34;15.55;;;8.32;;
85662;SDS011;76094;55.506;37.950;2024-01-30T08:31:00;17.88;;;8.43;;
85662;SDS011;76094;55.506;37.950;2024-01-30T08:33:26;19.73;;;8.77;;
85662;SDS011;76094;55.506;37.950;2024-01-30T08:35:52;15.20;;;8.50;;
85662;SDS011;76094;55.506;37.950;2024-01-30T08:38:19;15.57;;;8.27;;
85662;SDS011;76094;55.506;37.950;2024-01-30T08:40:46;13.85;;;8.13;;
85662;SDS011;76094;55.506;37.950;2024-01-30T08:43:12;17.00;;;8.55;;
85662;SDS011;76094;55.506;37.950;2024-01-30T08:45:38;16.25;;;8.50;;
85662;SDS011;76094;55.506;37.950;2024-01-30T08:48:05;18.88;;;9.20;;
85662;SDS011;76094;55.506;37.950;2024-01-30T08:50:31;15.73;;;8.52;;
85662;SDS011;76094;55.506;37.950;2024-01-30T08:52:58;14.93;;;8.40;;
85662;SDS011;76094;55.506;37.950;2024-01-30T08:55:24;12.48;;;8.15;;
85662;SDS011;76094;55.506;37.950;2024-01-30T08:57:50;13.98;;;8.52;;
85662;SDS011;76094;55.506;37.950;2024-01-30T09:00:17;15.40;;;8.57;;
85662;SDS011;76094;55.506;37.950;2024-01-30T09:02:44;13.85;;;8.27;;
85662;SDS011;76094;55.506;37.950;2024-01-30T09:05:10;16.33;;;9.00;;
85662;SDS011;76094;55.506;37.950;2024-01-30T09:07:37;17.92;;;8.48;;
85662;SDS011;76094;55.506;37.950;2024-01-30T09:10:03;16.23;;;8.60;;
85662;SDS011;76094;55.506;37.950;2024-01-30T09:12:30;14.30;;;7.90;;
85662;SDS011;76094;55.506;37.950;2024-01-30T09:14:56;16.48;;;8.60;;
85662;SDS011;76094;55.506;37.950;2024-01-30T09:17:22;15.05;;;8.57;;
85662;SDS011;76094;55.506;37.950;2024-01-30T09:19:49;16.13;;;8.27;;
85662;SDS011;76094;55.506;37.950;2024-01-30T09:22:15;14.13;;;8.50;;
85662;SDS011;76094;55.506;37.950;2024-01-30T09:24:41;16.67;;;8.07;;
85662;SDS011;76094;55.506;37.950;2024-01-30T09:27:07;15.55;;;8.55;;
85662;SDS011;76094;55.506;37.950;2024-01-30T09:29:34;16.50;;;8.15;;
85662;SDS011;76094;55.506;37.950;2024-01-30T09:32:03;14.60;;;7.88;;
85662;SDS011;76094;55.506;37.950;2024-01-30T09:34:31;13.25;;;8.07;;
85662;SDS011;76094;55.506;37.950;2024-01-30T09:36:59;13.25;;;8.27;;
85662;SDS011;76094;55.506;37.950;2024-01-30T09:39:26;14.82;;;8.07;;
85662;SDS011;76094;55.506;37.950;2024-01-30T09:41:59;14.13;;;8.02;;
85662;SDS011;76094;55.506;37.950;2024-01-30T09:44:34;17.15;;;9.07;;
85662;SDS011;76094;55.506;37.950;2024-01-30T09:47:02;14.93;;;8.30;;
85662;SDS011;76094;55.506;37.950;2024-01-30T09:49:32;13.65;;;8.00;;
85662;SDS011;76094;55.506;37.950;2024-01-30T09:51:59;14.93;;;7.80;;
85662;SDS011;76094;55.506;37.950;2024-01-30T09:54:25;17.50;;;8.38;;
85662;SDS011;76094;55.506;37.950;2024-01-30T09:56:52;20.05;;;8.32;;
85662;SDS011;76094;55.506;37.950;2024-01-30T09:59:18;17.77;;;9.27;;
85662;SDS011;76094;55.506;37.950;2024-01-30T10:01:44;16.17;;;8.60;;
85662;SDS011;76094;55.506;37.950;2024-01-30T10:04:11;14.95;;;8.73;;
85662;SDS011;76094;55.506;37.950;2024-01-30T10:06:37;16.73;;;8.02;;
85662;SDS011;76094;55.506;37.950;2024-01-30T10:09:04;15.80;;;8.70;;
85662;SDS011;76094;55.506;37.950;2024-01-30T10:11:30;15.52;;;8.55;;
85662;SDS011;76094;55.506;37.950;2024-01-30T10:13:56;19.27;;;8.25;;
85662;SDS011;76094;55.506;37.950;2024-01-30T10:16:23;14.77;;;8.68;;
85662;SDS011;76094;55.506;37.950;2024-01-30T10:18:49;14.55;;;8.85;;
85662;SDS011;76094;55.506;37.950;2024-01-30T10:21:16;16.15;;;9.57;;
85662;SDS011;76094;55.506;37.950;2024-01-30T10:23:43;12.63;;;8.32;;
85662;SDS011;76094;55.506;37.950;2024-01-30T10:26:10;17.75;;;8.07;;
85662;SDS011;76094;55.506;37.950;2024-01-30T10:28:36;18.13;;;8.70;;
85662;SDS011;76094;55.506;37.950;2024-01-30T10:31:03;15.13;;;8.25;;
85662;SDS011;76094;55.506;37.950;2024-01-30T10:33:30;16.65;;;8.35;;
85662;SDS011;76094;55.506;37.950;2024-01-30T10:36:00;16.88;;;8.98;;
85662;SDS011;76094;55.506;37.950;2024-01-30T10:38:28;17.95;;;9.15;;
85662;SDS011;76094;55.506;37.950;2024-01-30T10:40:56;20.15;;;8.52;;
85662;SDS011;76094;55.506;37.950;2024-01-30T10:43:24;15.55;;;9.38;;
85662;SDS011;76094;55.506;37.950;2024-01-30T10:46:20;18.65;;;9.02;;
85662;SDS011;76094;55.506;37.950;2024-01-30T10:48:58;15.32;;;8.55;;
85662;SDS011;76094;55.506;37.950;2024-01-30T10:51:28;12.77;;;8.25;;
85662;SDS011;76094;55.506;37.950;2024-01-30T10:53:55;19.42;;;8.13;;
85662;SDS011;76094;55.506;37.950;2024-01-30T10:56:22;17.48;;;8.50;;
85662;SDS011;76094;55.506;37.950;2024-01-30T10:58:49;17.13;;;8.80;;
85662;SDS011;76094;55.506;37.950;2024-01-30T11:01:22;14.30;;;9.07;;
85662;SDS011;76094;55.506;37.950;2024-01-30T11:03:52;15.93;;;8.70;;
85662;SDS011;76094;55.506;37.950;2024-01-30T11:06:23;15.70;;;8.68;;
85662;SDS011;76094;55.506;37.950;2024-01-30T11:11:51;18.55;;;8.40;;
85662;SDS011;76094;55.506;37.950;2024-01-30T11:14:23;15.02;;;8.63;;
85662;SDS011;76094;55.506;37.950;2024-01-30T11:16:51;17.00;;;8.60;;
85662;SDS011;76094;55.506;37.950;2024-01-30T11:19:24;16.25;;;8.57;;
85662;SDS011;76094;55.506;37.950;2024-01-30T11:21:54;19.50;;;9.20;;
85662;SDS011;76094;55.506;37.950;2024-01-30T11:24:25;18.30;;;8.68;;
85662;SDS011;76094;55.506;37.950;2024-01-30T11:26:55;18.75;;;9.10;;
85662;SDS011;76094;55.506;37.950;2024-01-30T11:29:29;19.00;;;9.57;;
85662;SDS011;76094;55.506;37.950;2024-01-30T11:31:56;18.63;;;9.10;;
85662;SDS011;76094;55.506;37.950;2024-01-30T11:34:24;19.33;;;9.10;;
85662;SDS011;76094;55.506;37.950;2024-01-30T11:36:56;22.05;;;9.50;;
85662;SDS011;76094;55.506;37.950;2024-01-30T11:39:25;15.25;;;9.50;;
85662;SDS011;76094;55.506;37.950;2024-01-30T11:41:52;16.52;;;8.73;;
85662;SDS011;76094;55.506;37.950;2024-01-30T11:44:22;19.42;;;8.88;;
85662;SDS011;76094;55.506;37.950;2024-01-30T11:46:49;19.58;;;8.75;;
85662;SDS011;76094;55.506;37.950;2024-01-30T11:49:16;15.90;;;9.05;;
85662;SDS011;76094;55.506;37.950;2024-01-30T11:51:46;17.58;;;9.15;;
85662;SDS011;76094;55.506;37.950;2024-01-30T11:54:14;15.77;;;9.50;;
85662;SDS011;76094;55.506;37.950;2024-01-30T11:56:42;17.52;;;9.05;;
85662;SDS011;76094;55.506;37.950;2024-01-30T11:59:09;17.65;;;9.18;;
85662;SDS011;76094;55.506;37.950;2024-01-30T12:01:35;14.40;;;8.63;;
85662;SDS011;76094;55.506;37.950;2024-01-30T12:04:03;18.30;;;9.57;;
85662;SDS011;76094;55.506;37.950;2024-01-30T12:06:29;19.40;;;9.70;;
85662;SDS011;76094;55.506;37.950;2024-01-30T12:08:58;15.93;;;9.30;;
85662;SDS011;76094;55.506;37.950;2024-01-30T12:11:26;15.15;;;8.98;;
85662;SDS011;76094;55.506;37.950;2024-01-30T12:13:53;15.38;;;8.93;;
85662;SDS011;76094;55.506;37.950;2024-01-30T12:16:20;15.05;;;8.82;;
85662;SDS011;76094;55.506;37.950;2024-01-30T12:18:47;22.38;;;9.43;;
85662;SDS011;76094;55.506;37.950;2024-01-30T12:21:17;16.58;;;9.43;;
85662;SDS011;76094;55.506;37.950;2024-01-30T12:23:44;16.45;;;9.48;;
85662;SDS011;76094;55.506;37.950;2024-01-30T12:26:11;17.15;;;9.00;;
85662;SDS011;76094;55.506;37.950;2024-01-30T12:28:47;21.60;;;9.55;;
85662;SDS011;76094;55.506;37.950;2024-01-30T12:31:14;16.30;;;9.63;;
85662;SDS011;76094;55.506;37.950;2024-01-30T12:33:41;19.38;;;9.48;;
85662;SDS011;76094;55.506;37.950;2024-01-30T12:36:07;19.25;;;10.00;;
85662;SDS011;76094;55.506;37.950;2024-01-30T12:38:34;24.77;;;13.75;;
85662;SDS011;76094;55.506;37.950;2024-01-30T12:41:00;19.30;;;9.77;;
85662;SDS011;76094;55.506;37.950;2024-01-30T12:43:26;15.35;;;9.57;;
85662;SDS011;76094;55.506;37.950;2024-01-30T12:45:54;19.13;;;9.50;;
85662;SDS011;76094;55.506;37.950;2024-01-30T12:48:20;16.38;;;9.30;;
85662;SDS011;76094;55.506;37.950;2024-01-30T12:50:47;18.45;;;9.90;;
85662;SDS011;76094;55.506;37.950;2024-01-30T12:53:13;20.20;;;9.55;;
85662;SDS011;76094;55.506;37.950;2024-01-30T12:55:40;23.48;;;10.00;;
85662;SDS011;76094;55.506;37.950;2024-01-30T12:58:06;19.25;;;10.20;;
85662;SDS011;76094;55.506;37.950;2024-01-30T13:00:32;17.80;;;9.88;;
85662;SDS011;76094;55.506;37.950;2024-01-30T13:03:00;20.95;;;10.10;;
85662;SDS011;76094;55.506;37.950;2024-01-30T13:05:27;17.95;;;9.27;;
85662;SDS011;76094;55.506;37.950;2024-01-30T13:07:53;19.15;;;9.43;;
85662;SDS011;76094;55.506;37.950;2024-01-30T13:10:20;18.02;;;9.55;;
85662;SDS011;76094;55.506;37.950;2024-01-30T13:12:46;19.02;;;10.07;;
85662;SDS011;76094;55.506;37.950;2024-01-30T13:15:13;18.58;;;9.63;;
85662;SDS011;76094;55.506;37.950;2024-01-30T13:17:39;20.45;;;9.70;;
85662;SDS011;76094;55.506;37.950;2024-01-30T13:20:06;19.98;;;9.90;;
85662;SDS011;76094;55.506;37.950;2024-01-30T13:22:34;20.50;;;10.05;;
85662;SDS011;76094;55.506;37.950;2024-01-30T13:25:00;18.98;;;10.52;;
85662;SDS011;76094;55.506;37.950;2024-01-30T13:27:29;20.38;;;10.10;;
85662;SDS011;76094;55.506;37.950;2024-01-30T13:29:55;17.92;;;10.20;;
85662;SDS011;76094;55.506;37.950;2024-01-30T13:32:22;19.67;;;10.07;;
85662;SDS011;76094;55.506;37.950;2024-01-30T13:34:49;18.60;;;9.70;;
85662;SDS011;76094;55.506;37.950;2024-01-30T13:37:15;20.25;;;9.88;;
85662;SDS011;76094;55.506;37.950;2024-01-30T13:39:42;24.35;;;9.68;;
85662;SDS011;76094;55.506;37.950;2024-01-30T13:42:08;16.80;;;9.90;;
85662;SDS011;76094;55.506;37.950;2024-01-30T13:44:35;18.35;;;9.88;;
85662;SDS011;76094;55.506;37.950;2024-01-30T13:47:02;21.95;;;9.77;;
85662;SDS011;76094;55.506;37.950;2024-01-30T13:49:29;22.00;;;10.48;;
85662;SDS011;76094;55.506;37.950;2024-01-30T13:51:55;18.58;;;9.90;;
85662;SDS011;76094;55.506;37.950;2024-01-30T13:54:21;20.00;;;10.05;;
85662;SDS011;76094;55.506;37.950;2024-01-30T13:56:47;19.75;;;9.07;;
85662;SDS011;76094;55.506;37.950;2024-01-30T13:59:14;13.55;;;9.63;;
85662;SDS011;76094;55.506;37.950;2024-01-30T14:01:40;21.85;;;10.25;;
85662;SDS011;76094;55.506;37.950;2024-01-30T14:04:06;21.58;;;10.23;;
85662;SDS011;76094;55.506;37.950;2024-01-30T14:06:33;20.23;;;10.23;;
85662;SDS011;76094;55.506;37.950;2024-01-30T14:08:59;18.50;;;10.00;;
85662;SDS011;76094;55.506;37.950;2024-01-30T14:11:26;21.00;;;10.18;;
85662;SDS011;76094;55.506;37.950;2024-01-30T14:13:52;17.95;;;10.30;;
85662;SDS011;76094;55.506;37.950;2024-01-30T14:16:18;23.17;;;9.98;;
85662;SDS011;76094;55.506;37.950;2024-01-30T14:18:45;22.15;;;10.45;;
85662;SDS011;76094;55.506;37.950;2024-01-30T14:21:11;26.80;;;12.77;;